Time;durP1;ratioP1;P1;durP2;ratioP2;P2;SDS_P1;SDS_P2;PMS_P1;PMS_P2;Temp;Humidity;BMP_temperature;BMP_pressure;BME280_temperature;BME280_humidity;BME280_pressure;Samples;Min_cycle;Max_cycle;Signal;HPM_P1;HPM_P2
2021/12/22 00:01:31;;;;;;;239.60;105.75;;;2.70;77.30;;;;;;5033223;28;20041;-58
2021/12/22 00:03:58;;;;;;;210.60;89.10;;;2.70;77.70;;;;;;5033421;28;20027;-55
2021/12/22 00:06:26;;;;;;;202.82;90.45;;;2.70;77.50;;;;;;5033354;28;20431;-54
2021/12/22 00:08:52;;;;;;;182.80;83.47;;;2.70;78.30;;;;;;5033240;28;20117;-51
2021/12/22 00:11:18;;;;;;;207.13;89.43;;;2.70;79.60;;;;;;5033241;28;20100;-56
2021/12/22 00:13:44;;;;;;;173.05;79.13;;;2.70;80.20;;;;;;5033346;28;20025;-56
2021/12/22 00:16:10;;;;;;;190.90;80.60;;;2.80;79.50;;;;;;5032648;28;20017;-53
2021/12/22 00:18:37;;;;;;;196.95;85.63;;;2.80;78.60;;;;;;5033545;28;20021;-55
2021/12/22 00:21:03;;;;;;;210.68;94.35;;;2.80;78.10;;;;;;5033147;28;20021;-54
2021/12/22 00:23:30;;;;;;;287.08;121.43;;;2.80;77.30;;;;;;5033206;28;20070;-48
2021/12/22 00:25:56;;;;;;;255.70;107.78;;;2.80;78.40;;;;;;5033067;28;20021;-57
2021/12/22 00:28:22;;;;;;;223.32;97.15;;;2.70;80.00;;;;;;5032938;28;20033;-52
2021/12/22 00:30:50;;;;;;;267.50;114.80;;;2.70;81.30;;;;;;5033060;28;20021;-50
2021/12/22 00:33:17;;;;;;;208.95;97.15;;;2.80;81.90;;;;;;5032972;28;20033;-56
2021/12/22 00:35:45;;;;;;;281.67;116.05;;;2.80;83.70;;;;;;5033149;28;20040;-50
2021/12/22 00:38:17;;;;;;;305.55;130.18;;;2.80;83.40;;;;;;5033329;28;20057;-57
2021/12/22 00:40:43;;;;;;;324.98;142.10;;;2.80;81.40;;;;;;5032995;28;20036;-53
2021/12/22 00:43:10;;;;;;;305.55;132.68;;;2.60;81.20;;;;;;5032838;28;20029;-58
2021/12/22 00:45:36;;;;;;;311.05;135.02;;;2.50;83.30;;;;;;5033225;28;20025;-55
2021/12/22 00:48:04;;;;;;;288.98;125.90;;;2.40;85.00;;;;;;5032877;28;20022;-56
2021/12/22 00:50:32;;;;;;;265.58;119.68;;;2.50;85.30;;;;;;5032746;28;20052;-57
2021/12/22 00:52:57;;;;;;;265.50;111.15;;;2.50;85.90;;;;;;5032935;28;20368;-55
2021/12/22 00:55:23;;;;;;;340.02;143.88;;;2.60;86.80;;;;;;5033114;28;20029;-54
2021/12/22 00:57:50;;;;;;;296.45;131.75;;;2.70;85.40;;;;;;5032923;28;20026;-52
2021/12/22 01:00:18;;;;;;;261.83;117.78;;;2.70;84.20;;;;;;5032847;28;20041;-54
2021/12/22 01:02:44;;;;;;;295.48;131.32;;;2.70;88.80;;;;;;5032636;28;20105;-52
2021/12/22 01:05:12;;;;;;;412.20;179.77;;;2.70;86.30;;;;;;5032910;28;20109;-52
2021/12/22 01:07:43;;;;;;;378.98;164.73;;;2.80;83.70;;;;;;5032785;28;20053;-57
2021/12/22 01:10:10;;;;;;;324.33;144.27;;;2.70;82.20;;;;;;5032653;28;20029;-58
2021/12/22 01:12:36;;;;;;;295.70;134.13;;;2.70;82.10;;;;;;5032467;28;20105;-54
2021/12/22 01:15:03;;;;;;;298.90;136.70;;;2.80;82.80;;;;;;5032962;28;20103;-56
2021/12/22 01:17:37;;;;;;;322.27;141.00;;;2.80;82.60;;;;;;5032561;28;20032;-57
2021/12/22 01:20:11;;;;;;;311.52;141.70;;;2.90;83.90;;;;;;5032769;28;20021;-53
2021/12/22 01:22:47;;;;;;;315.75;138.95;;;2.80;84.50;;;;;;5032526;28;20088;-54
2021/12/22 01:25:18;;;;;;;386.70;167.35;;;2.80;84.20;;;;;;5032543;28;20033;-53
2021/12/22 01:27:44;;;;;;;354.63;160.63;;;2.80;85.40;;;;;;5034700;28;20384;-52
2021/12/22 01:30:19;;;;;;;305.00;138.68;;;2.70;86.40;;;;;;5036458;28;20036;-52
2021/12/22 01:32:47;;;;;;;277.35;125.80;;;2.50;89.00;;;;;;5036076;28;20393;-54
2021/12/22 01:35:15;;;;;;;249.27;114.53;;;2.50;90.00;;;;;;5035880;28;20183;-56
2021/12/22 01:37:41;;;;;;;236.70;110.50;;;2.50;89.40;;;;;;5035966;28;20092;-56
2021/12/22 01:40:09;;;;;;;227.13;100.75;;;2.60;89.90;;;;;;5036208;28;20104;-52
2021/12/22 01:42:35;;;;;;;201.70;92.00;;;2.70;89.30;;;;;;5035520;28;20061;-58
2021/12/22 01:45:36;;;;;;;194.18;90.65;;;2.70;90.00;;;;;;5036086;28;20109;-58
2021/12/22 01:50:48;;;;;;;;;;;2.80;87.60;;;;;;5036063;28;20458;-55
2021/12/22 01:53:44;;;;;;;180.52;79.20;;;2.90;87.20;;;;;;5035623;28;19963;-58
2021/12/22 01:56:21;;;;;;;178.38;81.20;;;2.80;87.30;;;;;;5035576;28;20230;-53
2021/12/22 01:58:49;;;;;;;218.95;97.90;;;2.80;89.30;;;;;;5035898;28;20025;-53
2021/12/22 02:01:15;;;;;;;202.05;90.03;;;2.90;85.60;;;;;;5035456;28;20032;-53
2021/12/22 02:03:43;;;;;;;182.90;82.47;;;2.90;85.00;;;;;;5035375;28;20112;-51
2021/12/22 02:06:10;;;;;;;190.55;79.72;;;2.90;84.60;;;;;;5036003;28;20022;-57
2021/12/22 02:08:36;;;;;;;171.45;76.82;;;3.00;84.10;;;;;;5035384;28;20025;-56
2021/12/22 02:11:04;;;;;;;196.23;89.55;;;3.00;83.60;;;;;;5035094;28;20029;-55
2021/12/22 02:13:34;;;;;;;170.77;76.82;;;3.00;81.60;;;;;;5035337;28;20017;-54
2021/12/22 02:16:07;;;;;;;201.23;89.63;;;3.00;80.60;;;;;;5035260;28;20021;-49
2021/12/22 02:18:35;;;;;;;208.80;97.45;;;3.00;81.90;;;;;;5035150;28;20036;-54
2021/12/22 02:21:02;;;;;;;188.70;87.28;;;3.00;83.80;;;;;;5035204;28;20039;-56
2021/12/22 02:23:27;;;;;;;196.27;90.95;;;2.90;82.60;;;;;;5035102;28;20028;-58
2021/12/22 02:25:58;;;;;;;206.57;92.57;;;2.90;82.20;;;;;;5035145;28;20030;-51
2021/12/22 02:28:29;;;;;;;195.68;90.57;;;2.90;83.40;;;;;;5035110;28;20033;-52
2021/12/22 02:30:55;;;;;;;205.07;92.25;;;3.00;87.10;;;;;;5034886;28;20029;-54
2021/12/22 02:33:24;;;;;;;199.93;86.38;;;3.00;86.60;;;;;;5034924;28;20022;-54
2021/12/22 02:38:21;;;;;;;182.18;86.30;;;3.00;83.50;;;;;;5034363;28;20026;-55
2021/12/22 02:40:50;;;;;;;166.55;82.03;;;3.00;84.10;;;;;;5034555;28;20023;-52
2021/12/22 02:43:24;;;;;;;200.95;92.47;;;3.00;82.10;;;;;;5034601;28;20034;-54
2021/12/22 02:45:51;;;;;;;185.10;86.82;;;3.10;81.50;;;;;;5034633;28;20472;-55
2021/12/22 02:48:18;;;;;;;206.10;93.85;;;3.10;79.90;;;;;;5034616;28;20087;-55
2021/12/22 02:50:44;;;;;;;200.43;92.63;;;3.10;80.60;;;;;;5034361;28;20092;-56
2021/12/22 02:53:15;;;;;;;211.13;96.75;;;3.10;79.80;;;;;;5034271;28;20028;-55
2021/12/22 02:55:59;;;;;;;207.90;88.18;;;3.20;80.70;;;;;;5034732;28;20049;-56
2021/12/22 02:59:38;;;;;;;191.82;87.80;;;3.20;80.10;;;;;;5034332;28;20521;-57
2021/12/22 03:02:04;;;;;;;273.40;123.10;;;3.20;80.30;;;;;;5029347;28;20049;-56
2021/12/22 03:04:29;;;;;;;234.35;110.05;;;3.00;83.70;;;;;;5034123;28;20084;-56
2021/12/22 03:07:01;;;;;;;208.23;96.18;;;2.90;86.80;;;;;;5034202;28;20025;-52
2021/12/22 03:09:33;;;;;;;231.95;109.60;;;2.90;88.50;;;;;;5034033;28;20026;-55
2021/12/22 03:12:01;;;;;;;220.18;100.75;;;2.90;87.20;;;;;;5034120;28;20017;-56
2021/12/22 03:14:27;;;;;;;197.57;91.47;;;2.90;87.90;;;;;;5034127;28;20028;-56
2021/12/22 03:16:54;;;;;;;185.00;87.60;;;2.90;88.60;;;;;;5034427;28;20427;-51
2021/12/22 03:19:24;;;;;;;204.05;94.82;;;3.00;88.30;;;;;;5034025;28;20513;-51
2021/12/22 03:21:53;;;;;;;209.43;99.25;;;3.00;86.50;;;;;;5034085;28;20025;-54
2021/12/22 03:24:21;;;;;;;258.40;114.60;;;3.00;86.80;;;;;;5033780;28;20017;-53
2021/12/22 03:26:46;;;;;;;259.13;119.57;;;3.00;84.70;;;;;;5033880;28;20031;-49
2021/12/22 03:29:15;;;;;;;201.32;94.03;;;2.90;84.60;;;;;;5034182;28;20524;-56
2021/12/22 03:31:42;;;;;;;191.57;91.88;;;2.80;86.40;;;;;;5033870;28;20032;-52
2021/12/22 03:34:09;;;;;;;196.57;96.22;;;2.90;88.00;;;;;;5033772;28;20018;-59
2021/12/22 03:36:36;;;;;;;198.55;92.47;;;2.90;86.50;;;;;;5033575;28;20026;-55
2021/12/22 03:39:03;;;;;;;221.80;101.53;;;2.90;86.10;;;;;;5034020;28;20049;-57
2021/12/22 03:41:29;;;;;;;208.63;93.18;;;2.90;87.10;;;;;;5033582;28;20433;-54
2021/12/22 03:43:55;;;;;;;165.40;75.55;;;3.00;86.00;;;;;;5033660;28;20103;-53
2021/12/22 03:46:21;;;;;;;161.25;77.82;;;3.00;85.90;;;;;;5033908;28;20156;-54
2021/12/22 03:48:46;;;;;;;242.00;112.38;;;3.10;85.90;;;;;;5033289;28;20490;-57
2021/12/22 03:51:12;;;;;;;225.45;103.53;;;3.10;84.30;;;;;;5032952;28;20029;-54
2021/12/22 03:53:38;;;;;;;279.23;124.72;;;3.00;84.30;;;;;;5033544;28;20037;-53
2021/12/22 03:56:04;;;;;;;186.13;92.57;;;3.00;83.50;;;;;;5033515;28;20018;-56
2021/12/22 03:58:30;;;;;;;183.18;88.72;;;2.90;84.60;;;;;;5033398;28;20017;-59
2021/12/22 04:00:56;;;;;;;217.82;97.47;;;3.00;85.40;;;;;;5033548;28;20124;-53
2021/12/22 04:03:27;;;;;;;186.40;88.18;;;3.00;86.40;;;;;;5033249;28;20043;-56
2021/12/22 04:05:52;;;;;;;184.85;87.45;;;3.00;84.60;;;;;;5033061;28;20029;-52
2021/12/22 04:08:18;;;;;;;185.10;86.18;;;3.00;84.70;;;;;;5033348;28;20036;-55
2021/12/22 04:10:46;;;;;;;168.77;81.60;;;3.10;85.30;;;;;;5033543;28;20388;-57
2021/12/22 04:13:13;;;;;;;164.20;77.47;;;3.10;84.70;;;;;;5033471;28;20436;-49
2021/12/22 04:15:39;;;;;;;165.15;77.00;;;3.10;86.50;;;;;;5033381;28;20025;-51
2021/12/22 04:18:05;;;;;;;157.95;75.35;;;3.10;88.00;;;;;;5033253;28;20032;-53
2021/12/22 04:20:31;;;;;;;170.15;79.28;;;3.10;87.10;;;;;;5032939;28;20026;-51
2021/12/22 04:22:57;;;;;;;250.88;114.22;;;3.10;90.00;;;;;;5033067;28;20029;-54
2021/12/22 04:25:23;;;;;;;213.18;102.10;;;3.10;87.20;;;;;;5033173;28;20018;-52
2021/12/22 04:27:51;;;;;;;187.75;88.65;;;3.00;88.50;;;;;;5033268;28;20025;-55
2021/12/22 04:30:18;;;;;;;188.25;87.95;;;2.90;89.60;;;;;;5033049;28;20029;-56
2021/12/22 04:32:44;;;;;;;197.95;93.03;;;2.90;90.70;;;;;;5033028;28;20025;-54
2021/12/22 04:35:09;;;;;;;164.80;78.00;;;3.00;90.60;;;;;;5032679;28;20160;-54
2021/12/22 04:37:35;;;;;;;152.13;70.85;;;3.00;91.30;;;;;;5033081;28;20025;-58
2021/12/22 04:40:01;;;;;;;182.82;86.35;;;3.00;91.10;;;;;;5033052;28;20026;-55
2021/12/22 04:42:26;;;;;;;168.27;82.15;;;3.10;90.50;;;;;;5032864;28;20109;-53
2021/12/22 04:44:55;;;;;;;173.30;79.80;;;3.00;90.40;;;;;;5032959;28;20079;-57
2021/12/22 04:47:21;;;;;;;186.00;85.38;;;3.00;90.70;;;;;;5033389;28;20033;-54
2021/12/22 04:49:47;;;;;;;192.88;90.50;;;3.00;90.10;;;;;;5032433;28;20125;-55
2021/12/22 04:52:19;;;;;;;222.98;107.00;;;2.90;89.20;;;;;;5033047;28;20039;-56
2021/12/22 04:55:02;;;;;;;197.38;96.75;;;2.80;89.90;;;;;;5033164;28;20029;-57
2021/12/22 04:57:28;;;;;;;207.63;97.60;;;2.70;90.80;;;;;;5032774;28;20060;-53
2021/12/22 04:59:53;;;;;;;200.45;93.13;;;2.70;90.80;;;;;;5032874;28;20032;-51
2021/12/22 05:02:19;;;;;;;219.40;103.30;;;2.70;90.90;;;;;;5036055;28;20065;-53
2021/12/22 05:04:45;;;;;;;214.43;98.65;;;2.70;90.60;;;;;;5036264;28;20021;-57
2021/12/22 05:07:10;;;;;;;198.68;95.68;;;2.70;90.50;;;;;;5036883;28;20096;-53
2021/12/22 05:09:36;;;;;;;222.77;101.50;;;2.70;91.00;;;;;;5036530;28;20125;-52
2021/12/22 05:12:02;;;;;;;231.73;108.38;;;2.70;90.70;;;;;;5036662;28;20542;-54
2021/12/22 05:14:28;;;;;;;238.80;113.88;;;2.70;91.20;;;;;;5036431;28;20052;-56
2021/12/22 05:16:59;;;;;;;213.07;100.43;;;2.60;91.40;;;;;;5036426;28;20053;-54
2021/12/22 05:19:25;;;;;;;191.15;90.55;;;2.60;91.40;;;;;;5036069;28;20049;-48
2021/12/22 05:21:51;;;;;;;168.70;82.80;;;2.70;91.30;;;;;;5036326;28;20487;-53
2021/12/22 05:24:17;;;;;;;159.90;76.28;;;2.80;91.20;;;;;;5036275;28;20049;-54
2021/12/22 05:26:43;;;;;;;154.38;72.80;;;2.90;90.00;;;;;;5036092;28;20104;-54
2021/12/22 05:29:09;;;;;;;179.18;82.80;;;2.90;90.30;;;;;;5036415;28;20029;-53
2021/12/22 05:31:35;;;;;;;150.55;70.78;;;3.00;87.50;;;;;;5036407;28;20025;-53
2021/12/22 05:34:01;;;;;;;207.25;94.88;;;3.00;90.00;;;;;;5035828;28;20380;-55
2021/12/22 05:36:27;;;;;;;158.18;74.50;;;3.00;87.90;;;;;;5035984;28;20029;-53
2021/12/22 05:38:53;;;;;;;190.05;86.70;;;3.00;88.50;;;;;;5035780;28;20022;-54
2021/12/22 05:41:19;;;;;;;197.40;95.20;;;3.00;89.20;;;;;;5034188;28;20156;-57
2021/12/22 05:43:45;;;;;;;198.32;95.15;;;3.00;87.50;;;;;;5033817;28;20122;-55
2021/12/22 05:46:10;;;;;;;168.18;77.28;;;2.90;86.40;;;;;;5034031;28;20476;-59
2021/12/22 05:48:36;;;;;;;185.25;84.90;;;2.90;88.70;;;;;;5034801;28;20036;-54
2021/12/22 05:51:02;;;;;;;241.38;109.45;;;2.90;90.30;;;;;;5034270;28;20492;-57
2021/12/22 05:53:29;;;;;;;212.55;98.18;;;2.90;90.40;;;;;;5034628;28;20506;-53
2021/12/22 05:55:55;;;;;;;210.13;98.72;;;2.90;90.10;;;;;;5035043;28;20087;-55
2021/12/22 05:58:22;;;;;;;181.60;87.13;;;3.00;90.30;;;;;;5032926;28;20026;-54
2021/12/22 06:00:48;;;;;;;175.43;80.95;;;2.90;90.60;;;;;;5033689;28;20033;-52
2021/12/22 06:03:14;;;;;;;172.35;78.93;;;2.90;91.70;;;;;;5033194;28;20037;-52
2021/12/22 06:05:40;;;;;;;162.50;77.65;;;3.00;91.30;;;;;;5033012;28;20025;-58
2021/12/22 06:08:06;;;;;;;147.70;69.53;;;3.00;92.10;;;;;;5033483;28;20022;-52
2021/12/22 06:10:34;;;;;;;172.48;82.70;;;3.00;91.70;;;;;;5034390;28;20093;-54
2021/12/22 06:13:04;;;;;;;165.77;76.30;;;3.10;91.50;;;;;;5032400;28;20476;-58
2021/12/22 06:15:31;;;;;;;199.95;90.50;;;3.10;91.00;;;;;;5032534;28;20031;-53
2021/12/22 06:17:58;;;;;;;232.13;112.78;;;3.10;90.90;;;;;;5032709;28;20017;-58
2021/12/22 06:20:25;;;;;;;228.40;110.50;;;2.90;90.70;;;;;;5032247;28;20071;-58
2021/12/22 06:22:51;;;;;;;226.18;104.28;;;2.70;91.60;;;;;;5033019;28;20116;-57
2021/12/22 06:25:17;;;;;;;196.43;94.70;;;2.70;92.70;;;;;;5033184;28;20475;-59
2021/12/22 06:27:42;;;;;;;173.02;79.72;;;2.80;92.10;;;;;;5033593;28;20028;-56
2021/12/22 06:30:09;;;;;;;159.40;77.38;;;2.80;91.80;;;;;;5032737;28;20021;-55
2021/12/22 06:32:35;;;;;;;237.10;111.18;;;2.90;91.90;;;;;;5033310;28;20151;-54
2021/12/22 06:35:01;;;;;;;249.07;114.22;;;3.00;90.70;;;;;;5031968;28;20017;-51
2021/12/22 06:37:27;;;;;;;336.67;147.15;;;2.90;89.70;;;;;;5031984;28;20026;-56
2021/12/22 06:39:53;;;;;;;368.58;163.68;;;2.80;91.30;;;;;;5031962;28;20025;-57
2021/12/22 06:42:18;;;;;;;257.80;124.88;;;2.80;92.50;;;;;;5031660;28;20040;-56
2021/12/22 06:44:44;;;;;;;224.60;109.95;;;2.70;91.00;;;;;;5031800;28;20018;-50
2021/12/22 06:47:10;;;;;;;216.13;105.00;;;2.50;90.80;;;;;;5032722;28;20048;-53
2021/12/22 06:49:37;;;;;;;192.85;91.22;;;2.40;90.70;;;;;;5034062;28;20484;-52
2021/12/22 06:52:03;;;;;;;195.82;92.78;;;2.30;91.40;;;;;;5033733;28;20025;-56
2021/12/22 06:54:29;;;;;;;211.00;99.35;;;2.40;92.30;;;;;;5039914;28;20021;-56
2021/12/22 06:56:55;;;;;;;188.50;89.07;;;2.50;92.60;;;;;;5041046;28;20387;-57
2021/12/22 06:59:21;;;;;;;192.38;89.15;;;2.60;92.50;;;;;;5042204;28;20559;-54
2021/12/22 07:01:47;;;;;;;211.85;98.00;;;2.80;92.00;;;;;;5042905;28;20037;-56
2021/12/22 07:04:13;;;;;;;195.82;91.00;;;2.80;90.80;;;;;;5038391;28;20029;-58
2021/12/22 07:06:39;;;;;;;202.10;93.65;;;2.90;91.00;;;;;;5032992;28;20528;-54
2021/12/22 07:09:07;;;;;;;188.05;92.65;;;3.00;90.90;;;;;;5032202;28;20368;-56
2021/12/22 07:11:34;;;;;;;188.52;90.90;;;3.00;90.60;;;;;;5034054;28;20059;-52
2021/12/22 07:14:00;;;;;;;188.15;86.28;;;3.00;90.00;;;;;;5033736;28;20100;-55
2021/12/22 07:16:26;;;;;;;157.00;79.93;;;3.00;90.10;;;;;;5032790;28;20022;-55
2021/12/22 07:18:52;;;;;;;159.02;76.60;;;3.10;87.90;;;;;;5033763;28;20025;-56
2021/12/22 07:21:18;;;;;;;172.55;82.25;;;3.10;85.70;;;;;;5040941;28;20040;-56
2021/12/22 07:23:44;;;;;;;142.10;69.78;;;3.10;85.70;;;;;;5047937;28;20036;-58
2021/12/22 07:26:15;;;;;;;174.07;81.35;;;3.10;85.20;;;;;;5032337;28;20036;-51
2021/12/22 07:28:43;;;;;;;161.70;77.25;;;3.20;85.80;;;;;;5040059;28;20037;-55
2021/12/22 07:31:09;;;;;;;154.50;72.13;;;3.30;85.20;;;;;;5032336;28;20044;-55
2021/12/22 07:33:35;;;;;;;201.70;94.50;;;3.40;85.30;;;;;;5031155;28;20022;-56
2021/12/22 07:36:04;;;;;;;168.88;82.25;;;3.40;82.80;;;;;;5044441;28;20029;-58
2021/12/22 07:38:39;;;;;;;159.32;74.95;;;3.50;82.00;;;;;;5043899;28;20639;-52
2021/12/22 07:41:07;;;;;;;243.00;104.40;;;3.50;81.40;;;;;;5047808;28;20025;-56
2021/12/22 07:43:34;;;;;;;185.13;88.32;;;3.60;79.80;;;;;;5040987;28;20355;-52
2021/12/22 07:46:02;;;;;;;207.05;90.93;;;3.70;78.00;;;;;;5038805;28;20056;-56
2021/12/22 07:48:28;;;;;;;248.52;105.30;;;3.70;77.00;;;;;;5038189;28;20028;-53
2021/12/22 07:50:54;;;;;;;242.57;111.75;;;3.80;76.50;;;;;;5037467;28;20450;-56
2021/12/22 07:53:21;;;;;;;204.57;97.78;;;3.70;77.70;;;;;;5037997;28;20025;-58
2021/12/22 07:55:53;;;;;;;179.82;85.72;;;3.70;74.60;;;;;;5049626;28;20079;-57
2021/12/22 07:58:23;;;;;;;164.02;81.68;;;3.60;73.80;;;;;;5050593;28;20071;-54
2021/12/22 08:00:50;;;;;;;171.38;85.55;;;3.70;75.40;;;;;;5035752;28;20033;-55
2021/12/22 08:03:16;;;;;;;216.82;104.15;;;3.80;75.00;;;;;;5027940;28;20045;-51
2021/12/22 08:05:42;;;;;;;148.35;76.22;;;3.90;72.20;;;;;;5046066;28;20025;-57
2021/12/22 08:08:08;;;;;;;147.50;73.32;;;3.80;69.60;;;;;;5040197;28;20028;-58
2021/12/22 08:10:34;;;;;;;182.35;89.93;;;3.80;69.50;;;;;;5052142;28;20382;-53
2021/12/22 08:13:00;;;;;;;176.13;85.97;;;3.90;68.60;;;;;;5051270;28;20049;-59
2021/12/22 08:15:26;;;;;;;169.77;82.70;;;3.80;69.00;;;;;;5048822;28;20049;-57
2021/12/22 08:17:53;;;;;;;154.60;77.00;;;3.80;70.00;;;;;;5050124;28;20025;-54
2021/12/22 08:20:19;;;;;;;139.50;69.57;;;3.90;72.30;;;;;;5050031;28;20025;-59
2021/12/22 08:22:45;;;;;;;149.82;74.40;;;4.00;71.30;;;;;;5049750;28;20071;-55
2021/12/22 08:25:12;;;;;;;161.45;81.25;;;4.10;69.70;;;;;;5050703;28;20078;-54
2021/12/22 08:27:39;;;;;;;200.40;92.70;;;4.20;69.00;;;;;;5048975;28;20022;-60
2021/12/22 08:30:06;;;;;;;171.63;83.65;;;4.40;69.20;;;;;;5050977;28;20017;-61
2021/12/22 08:32:33;;;;;;;189.55;97.40;;;4.50;68.70;;;;;;5050470;28;20029;-62
2021/12/22 08:34:58;;;;;;;227.40;108.40;;;4.60;67.70;;;;;;5036005;28;20391;-51
2021/12/22 08:40:11;;;;;;;188.93;94.80;;;4.60;68.20;;;;;;5036012;28;20029;-56
2021/12/22 08:42:37;;;;;;;238.93;116.47;;;4.60;68.50;;;;;;5036298;28;20028;-53
2021/12/22 08:45:04;;;;;;;234.63;118.18;;;4.60;71.40;;;;;;5036828;28;20030;-52
2021/12/22 08:47:31;;;;;;;225.55;115.68;;;4.50;71.50;;;;;;5050503;28;20028;-59
2021/12/22 08:49:56;;;;;;;250.63;124.30;;;4.50;74.00;;;;;;5052735;28;20044;-56
2021/12/22 08:52:22;;;;;;;256.27;130.93;;;4.60;74.50;;;;;;5048679;28;20044;-54
2021/12/22 08:54:48;;;;;;;231.93;119.75;;;4.50;73.90;;;;;;5053085;28;20100;-59
2021/12/22 08:57:14;;;;;;;219.52;117.00;;;4.60;74.60;;;;;;5052787;28;20070;-54
2021/12/22 08:59:39;;;;;;;209.68;114.93;;;4.70;75.00;;;;;;5053356;28;20445;-58
2021/12/22 09:02:05;;;;;;;225.55;120.43;;;4.70;74.20;;;;;;5052088;28;20692;-59
2021/12/22 09:04:31;;;;;;;215.52;111.80;;;4.80;74.70;;;;;;5049481;28;20029;-59
2021/12/22 09:06:57;;;;;;;202.43;109.68;;;4.80;74.10;;;;;;5051480;28;20049;-57
2021/12/22 09:09:23;;;;;;;204.93;106.55;;;4.80;73.60;;;;;;5053700;28;20177;-56
2021/12/22 09:11:50;;;;;;;194.85;103.57;;;4.90;72.60;;;;;;5054822;28;20043;-55
2021/12/22 09:14:17;;;;;;;198.52;104.63;;;5.00;72.40;;;;;;5051819;28;20104;-58
2021/12/22 09:16:43;;;;;;;186.52;100.20;;;4.80;74.30;;;;;;5036563;28;20029;-55
2021/12/22 09:19:10;;;;;;;180.00;93.88;;;4.70;74.90;;;;;;5034156;28;20101;-57
2021/12/22 09:21:36;;;;;;;168.48;87.72;;;4.80;72.80;;;;;;5044296;28;20112;-52
2021/12/22 09:24:05;;;;;;;175.40;91.55;;;5.00;71.30;;;;;;5043169;28;20116;-60
2021/12/22 09:26:31;;;;;;;172.13;91.22;;;5.10;73.60;;;;;;5034958;28;20426;-59
2021/12/22 09:28:58;;;;;;;184.75;98.60;;;5.20;71.10;;;;;;5032643;28;20030;-57
2021/12/22 09:31:24;;;;;;;174.73;95.15;;;5.30;72.90;;;;;;5033547;28;20017;-56
2021/12/22 09:33:51;;;;;;;163.00;88.60;;;5.40;70.20;;;;;;5033407;28;20021;-59
2021/12/22 09:36:16;;;;;;;149.75;84.85;;;5.50;69.30;;;;;;5032125;28;20017;-61
2021/12/22 09:38:43;;;;;;;157.25;84.22;;;5.60;68.40;;;;;;5042168;28;20108;-55
2021/12/22 09:41:10;;;;;;;139.20;77.63;;;5.50;67.50;;;;;;5042607;28;20040;-57
2021/12/22 09:43:36;;;;;;;138.35;74.32;;;5.50;70.20;;;;;;5043948;28;20045;-59
2021/12/22 09:46:10;;;;;;;138.65;73.03;;;5.60;67.10;;;;;;5036838;28;20033;-55
2021/12/22 09:53:54;;;;;;;117.72;67.80;;;5.80;66.10;;;;;;5052280;28;20032;-56
2021/12/22 09:56:27;;;;;;;122.53;65.40;;;6.00;65.70;;;;;;5050716;28;20089;-52
2021/12/22 09:58:54;;;;;;;130.20;70.05;;;6.20;65.70;;;;;;5052396;28;20039;-53
2021/12/22 10:01:23;;;;;;;117.70;64.30;;;6.20;64.50;;;;;;5051170;28;20549;-60
2021/12/22 10:03:50;;;;;;;128.77;67.18;;;6.20;63.60;;;;;;5048978;28;20052;-54
2021/12/22 10:06:16;;;;;;;112.90;60.90;;;6.20;63.40;;;;;;5043923;28;20017;-55
2021/12/22 10:09:14;;;;;;;105.55;58.30;;;6.20;62.80;;;;;;5045879;28;20094;-56
2021/12/22 10:11:47;;;;;;;114.72;61.25;;;6.30;64.10;;;;;;5067867;28;20303;-61
2021/12/22 10:14:22;;;;;;;100.53;54.63;;;6.40;61.50;;;;;;5049438;28;20219;-62
2021/12/22 10:16:51;;;;;;;99.90;57.58;;;6.60;59.70;;;;;;5048963;28;20285;-65
2021/12/22 10:19:17;;;;;;;102.82;56.85;;;6.80;60.00;;;;;;5049277;28;20029;-70
2021/12/22 10:22:01;;;;;;;94.72;55.30;;;6.90;60.00;;;;;;5050672;28;20048;-62
2021/12/22 10:24:43;;;;;;;89.30;52.75;;;6.80;57.30;;;;;;5048583;28;20025;-67
2021/12/22 10:27:24;;;;;;;89.10;51.72;;;6.70;58.20;;;;;;5047654;28;20036;-65
2021/12/22 10:29:49;;;;;;;92.75;53.90;;;6.90;58.40;;;;;;5048694;28;20156;-61
2021/12/22 10:32:16;;;;;;;88.20;50.50;;;7.20;58.60;;;;;;5050523;28;20059;-66
2021/12/22 10:35:05;;;;;;;85.97;50.47;;;7.30;57.10;;;;;;5050064;28;20025;-65
2021/12/22 10:37:40;;;;;;;76.15;46.92;;;7.60;55.70;;;;;;5050893;28;20017;-60
2021/12/22 10:40:22;;;;;;;74.50;44.35;;;8.10;54.10;;;;;;5032416;28;20025;-61
2021/12/22 10:42:49;;;;;;;65.88;40.92;;;8.40;54.10;;;;;;5040785;28;20065;-53
2021/12/22 10:45:16;;;;;;;66.35;42.35;;;8.60;53.30;;;;;;5044748;28;20036;-65
2021/12/22 10:50:36;;;;;;;65.43;41.08;;;9.00;51.10;;;;;;5045427;28;20506;-64
2021/12/22 10:53:02;;;;;;;77.25;45.63;;;9.30;50.00;;;;;;5042956;28;20021;-63
2021/12/22 10:55:37;;;;;;;81.60;49.30;;;9.60;48.50;;;;;;5044739;28;20019;-65
2021/12/22 10:58:18;;;;;;;78.93;46.30;;;9.70;48.00;;;;;;5039256;28;20093;-61
2021/12/22 11:00:44;;;;;;;74.95;45.92;;;9.90;48.40;;;;;;5033906;28;20404;-62
2021/12/22 11:03:16;;;;;;;61.42;39.50;;;10.10;45.60;;;;;;5031944;28;20022;-61
2021/12/22 11:05:52;;;;;;;33.10;19.52;;;10.10;43.00;;;;;;5032124;28;20030;-60
2021/12/22 11:08:23;;;;;;;36.90;23.70;;;9.70;38.30;;;;;;5031153;28;20029;-62
2021/12/22 11:10:49;;;;;;;28.60;18.13;;;9.30;40.90;;;;;;5036492;28;20455;-60
2021/12/22 11:13:20;;;;;;;28.27;17.45;;;9.20;42.00;;;;;;5042486;28;20028;-61
2021/12/22 11:15:46;;;;;;;28.67;18.00;;;9.30;40.90;;;;;;5042196;28;20056;-61
2021/12/22 11:18:36;;;;;;;29.05;18.35;;;9.10;39.40;;;;;;5046141;28;20056;-61
2021/12/22 11:21:27;;;;;;;33.00;20.00;;;9.30;39.30;;;;;;5048450;28;20028;-58
2021/12/22 11:23:53;;;;;;;30.83;19.13;;;9.40;39.30;;;;;;5051969;28;20037;-63
2021/12/22 11:26:19;;;;;;;30.85;17.98;;;9.30;39.20;;;;;;5052703;28;20382;-63
2021/12/22 11:28:44;;;;;;;29.10;17.15;;;9.20;39.10;;;;;;5052676;28;20438;-60
2021/12/22 11:31:12;;;;;;;25.10;15.23;;;9.10;38.90;;;;;;5053293;28;20027;-61
2021/12/22 11:33:40;;;;;;;24.35;15.30;;;9.00;40.90;;;;;;5052820;28;20053;-63
2021/12/22 11:36:07;;;;;;;18.27;11.43;;;8.90;39.80;;;;;;5050674;28;20019;-64
2021/12/22 11:38:33;;;;;;;39.92;21.08;;;8.80;38.70;;;;;;5049331;28;20021;-64
2021/12/22 11:41:13;;;;;;;76.00;36.53;;;8.80;39.10;;;;;;5050517;28;20029;-64
2021/12/22 11:43:41;;;;;;;179.48;87.30;;;8.50;39.10;;;;;;5049699;28;20032;-66
2021/12/22 11:46:07;;;;;;;97.70;50.13;;;8.20;40.00;;;;;;5051044;28;20032;-61
2021/12/22 11:48:35;;;;;;;69.13;35.70;;;8.00;40.10;;;;;;5049095;28;20029;-61
2021/12/22 11:51:20;;;;;;;61.67;33.42;;;8.00;40.40;;;;;;5047883;28;20053;-61
2021/12/22 11:53:58;;;;;;;48.92;26.83;;;7.90;42.10;;;;;;5049172;28;20017;-62
2021/12/22 11:56:40;;;;;;;42.58;23.13;;;8.10;43.60;;;;;;5049166;28;20034;-61
2021/12/22 11:59:23;;;;;;;43.08;24.30;;;8.20;41.20;;;;;;5048663;28;20095;-63
2021/12/22 12:02:23;;;;;;;47.13;26.85;;;8.20;42.10;;;;;;5050007;28;20017;-62
2021/12/22 12:05:12;;;;;;;63.47;34.30;;;8.40;41.30;;;;;;5049500;28;20067;-61
2021/12/22 12:07:46;;;;;;;64.20;34.60;;;8.30;41.70;;;;;;5050426;28;20044;-62
2021/12/22 12:10:32;;;;;;;43.22;25.70;;;8.30;41.00;;;;;;5048077;28;20490;-64
2021/12/22 12:13:09;;;;;;;38.95;22.10;;;8.30;41.60;;;;;;5049635;28;20025;-66
2021/12/22 12:21:57;;;;;;;33.55;19.15;;;8.50;40.90;;;;;;5052939;28;20509;-62
2021/12/22 12:24:46;;;;;;;31.17;18.40;;;8.50;41.10;;;;;;5051243;28;20052;-63
2021/12/22 12:27:30;;;;;;;32.28;17.92;;;8.50;41.20;;;;;;5050025;28;20025;-62
2021/12/22 12:30:05;;;;;;;;;;;8.30;41.80;;;;;;5051383;28;20430;-61
2021/12/22 12:32:40;;;;;;;;;;;8.40;41.30;;;;;;5050671;28;19915;-63
2021/12/22 12:35:28;;;;;;;25.38;15.30;;;8.20;41.30;;;;;;5052720;28;19912;-63
2021/12/22 12:38:11;;;;;;;27.63;17.35;;;8.20;42.00;;;;;;5051215;28;20116;-61
2021/12/22 12:40:55;;;;;;;26.88;15.48;;;8.20;41.60;;;;;;5041304;28;20033;-63
2021/12/22 12:43:39;;;;;;;;;;;8.30;42.00;;;;;;5040717;28;20021;-63
2021/12/22 12:46:35;;;;;;;29.30;17.15;;;8.20;41.20;;;;;;5040514;28;19905;-61
2021/12/22 12:49:07;;;;;;;23.30;14.27;;;7.90;41.40;;;;;;5042189;28;20096;-61
2021/12/22 12:51:36;;;;;;;26.13;14.93;;;7.80;42.70;;;;;;5039812;28;20041;-61
2021/12/22 12:54:04;;;;;;;27.15;15.30;;;7.90;42.40;;;;;;5042534;28;20021;-61
2021/12/22 12:56:41;;;;;;;25.08;13.70;;;8.00;43.20;;;;;;5041897;28;20174;-61
2021/12/22 12:59:09;;;;;;;24.95;14.60;;;7.90;43.10;;;;;;5042451;28;20033;-63
2021/12/22 13:01:47;;;;;;;41.20;21.02;;;7.80;42.20;;;;;;5041819;28;20048;-63